Lancaster, CA

6:41 PM PST on December 22, 2014 (GMT -0800)
I and 20th W | Change Station
CLOSE
Current Station
Personal Weather Station
Location: Lancaster, CA
Elevation: 2329 ft
Nearby Weather Stations

Elev 2329 ft 34.71 °N, 118.16 °W | Updated 1 second ago

Clear
Clear
53.0 °F
Feels Like 53.0 °F
N
0.0
Wind Variable Wind from WNW
Gusts 2.0 mph

Today
High -- | Low -- °F
--% Chance of Precip.
Yesterday
High -- | Low -- °F
Precip. -- in
6:56 AM 4:46 PM
New Moon, 1% visible
Pressure 30.09 in
Visibility 10.0 miles
Clouds Clear
Dew Point 44 °F
Humidity 72%
Rainfall 0.00 in
Snow Depth Not available.
UV 0 out of 12
Pollen 5.20 out of 12
Air Quality Not available.
Flu Activity Not available.
METAR KWJF 230156Z AUTO 29011KT 10SM CLR 12/06 A3009 RMK AO2 SLP190 T01170061 TSNO

More Conditions Fewer Conditions

Pressure 30.09 in
Visibility 10.0 miles
Clouds Clear
Dew Point 44 °F
Humidity 72%
Rainfall 0.00 in
Snow Depth Not available.
UV 0 out of 12
Pollen 5.20 out of 12
Air Quality Not available.
Flu Activity Not available.
METAR KWJF 230156Z AUTO 29011KT 10SM CLR 12/06 A3009 RMK AO2 SLP190 T01170061 TSNO

More Conditions Fewer Conditions

10-Day Weather Forecast

Almanac

Astronomy

Dec. 22, 2014 Rise Set
Actual Time
Civil Twilight
Nautical Twilight
Astronomical Twilight
Moon
Length of Visible Light
Length of Day
Tomorrow will be .
, % of the Moon is Illuminated

Today's Extremes

State Highs State Lows

Community

WunderPhotos

Upload Photos

1,779,762 photos uploaded!

WunderBlogs® & News

Nearby

Air Quality

  Air Quality AQ Index Pollutant
Not available.

Snow Depth

Station Depth Elevation

Earthquake Activity

City Distance Mag. Time & Date
Minimum magnitude displayed is 2.5.

Coastal Water Temperatures

Place Temperature

Nearby Weather Stations